createdAt,value
2022-10-16T00:01:19.626Z,0.98
2022-10-16T00:03:47.728Z,1.25
2022-10-16T00:06:16.368Z,1.08
2022-10-16T00:08:43.244Z,0.65
2022-10-16T00:11:21.914Z,0.98
2022-10-16T00:13:50.976Z,2.80
2022-10-16T00:16:18.740Z,1.65
2022-10-16T00:18:45.748Z,2.45
2022-10-16T00:21:16.003Z,1.30
2022-10-16T00:23:43.480Z,3.70
2022-10-16T00:26:13.713Z,1.95
2022-10-16T00:28:40.678Z,1.40
2022-10-16T00:31:10.536Z,1.40
2022-10-16T00:33:38.535Z,3.75
2022-10-16T00:36:06.611Z,1.30
2022-10-16T00:38:33.468Z,1.05
2022-10-16T00:41:00.416Z,1.15
2022-10-16T00:43:39.722Z,1.70
2022-10-16T00:46:31.795Z,1.48
2022-10-16T00:49:12.870Z,1.10
2022-10-16T00:51:46.569Z,1.95
2022-10-16T00:54:21.874Z,2.33
2022-10-16T00:56:48.907Z,1.77
2022-10-16T00:59:21.750Z,2.30
2022-10-16T01:01:48.735Z,5.93
2022-10-16T01:04:15.613Z,1.90
2022-10-16T01:07:03.385Z,1.40
2022-10-16T01:09:45.145Z,1.38
2022-10-16T01:12:20.804Z,1.55
2022-10-16T01:14:53.444Z,1.20
2022-10-16T01:17:27.128Z,1.70
2022-10-16T01:20:00.163Z,1.50
2022-10-16T01:22:36.576Z,1.35
2022-10-16T01:25:09.653Z,1.63
2022-10-16T01:27:40.343Z,1.00
2022-10-16T01:30:25.665Z,1.50
2022-10-16T01:32:58.777Z,1.20
2022-10-16T01:35:33.548Z,2.22
2022-10-16T01:38:09.877Z,1.73
2022-10-16T01:40:40.623Z,1.05
2022-10-16T01:43:11.521Z,1.92
2022-10-16T01:45:38.988Z,0.90
2022-10-16T01:48:08.885Z,1.02
2022-10-16T01:50:40.912Z,0.75
2022-10-16T01:53:11.619Z,0.60
2022-10-16T01:55:45.926Z,0.85
2022-10-16T01:58:15.084Z,0.90
2022-10-16T02:00:45.511Z,1.55
2022-10-16T02:03:15.046Z,1.10
2022-10-16T02:05:47.681Z,0.70
2022-10-16T02:08:14.987Z,0.70
2022-10-16T02:10:41.992Z,0.70
2022-10-16T02:13:34.579Z,0.80
2022-10-16T02:16:01.760Z,0.68
2022-10-16T02:18:30.373Z,1.00
2022-10-16T02:21:06.008Z,0.57
2022-10-16T02:23:47.279Z,0.60
2022-10-16T02:26:20.693Z,1.30
2022-10-16T02:28:54.008Z,0.68
2022-10-16T02:31:28.738Z,0.45
2022-10-16T02:33:59.074Z,0.95
2022-10-16T02:36:27.111Z,0.70
2022-10-16T02:38:54.479Z,0.60
2022-10-16T02:41:23.231Z,0.70
2022-10-16T02:43:50.538Z,0.75
2022-10-16T02:46:18.564Z,0.80
2022-10-16T02:48:45.413Z,0.60
2022-10-16T02:51:12.316Z,0.90
2022-10-16T02:53:39.123Z,0.95
2022-10-16T02:56:06.069Z,0.80
2022-10-16T02:58:32.904Z,0.63
2022-10-16T03:00:59.805Z,0.80
2022-10-16T03:03:26.627Z,0.73
2022-10-16T03:05:53.404Z,0.80
2022-10-16T03:08:24.594Z,0.60
2022-10-16T03:10:52.131Z,0.70
2022-10-16T03:13:21.340Z,0.60
2022-10-16T03:15:48.448Z,1.00
2022-10-16T03:18:15.892Z,1.80
2022-10-16T03:20:44.672Z,0.63
2022-10-16T03:23:11.500Z,0.40
2022-10-16T03:25:38.845Z,0.80
2022-10-16T03:28:05.810Z,0.95
2022-10-16T03:30:32.768Z,1.00
2022-10-16T03:32:59.528Z,1.45
2022-10-16T03:35:26.302Z,0.88
2022-10-16T03:37:53.577Z,1.10
2022-10-16T03:40:20.740Z,0.63
2022-10-16T03:42:47.655Z,0.70
2022-10-16T03:45:14.485Z,0.73
2022-10-16T03:47:41.888Z,1.20
2022-10-16T03:50:09.285Z,0.85
2022-10-16T03:52:36.131Z,0.50
2022-10-16T03:55:03.159Z,0.75
2022-10-16T03:57:30.221Z,0.80
2022-10-16T03:59:57.052Z,0.90
2022-10-16T04:02:23.996Z,0.50
2022-10-16T04:04:50.751Z,1.10
2022-10-16T04:07:17.820Z,0.80
2022-10-16T04:09:44.618Z,1.10
2022-10-16T04:12:11.370Z,0.90
2022-10-16T04:14:38.434Z,0.82
2022-10-16T04:17:05.233Z,1.33
2022-10-16T04:19:32.073Z,0.98
2022-10-16T04:21:58.907Z,0.70
2022-10-16T04:24:25.816Z,1.15
2022-10-16T04:26:52.727Z,1.13
2022-10-16T04:29:19.639Z,0.85
2022-10-16T04:31:46.629Z,1.08
2022-10-16T04:34:13.387Z,0.80
2022-10-16T04:36:40.221Z,1.30
2022-10-16T04:39:07.060Z,1.33
2022-10-16T04:41:33.912Z,1.63
2022-10-16T04:44:00.760Z,1.20
2022-10-16T04:46:27.562Z,1.30
2022-10-16T04:48:55.011Z,1.13
2022-10-16T04:51:21.950Z,0.93
2022-10-16T04:53:48.932Z,1.25
2022-10-16T04:56:16.453Z,1.33
2022-10-16T04:58:43.330Z,1.50
2022-10-16T05:01:10.426Z,1.30
2022-10-16T05:03:37.196Z,1.20
2022-10-16T05:06:09.557Z,1.13
2022-10-16T05:08:36.401Z,1.20
2022-10-16T05:11:03.388Z,1.30
2022-10-16T05:13:30.139Z,1.20
2022-10-16T05:15:58.105Z,1.00
2022-10-16T05:18:25.000Z,1.10
2022-10-16T05:20:51.816Z,1.95
2022-10-16T05:23:18.779Z,1.02
2022-10-16T05:25:54.564Z,1.20
2022-10-16T05:28:21.755Z,1.05
2022-10-16T05:30:48.559Z,1.10
2022-10-16T05:33:15.359Z,1.30
2022-10-16T05:35:42.283Z,1.10
2022-10-16T05:38:09.116Z,1.20
2022-10-16T05:40:36.326Z,1.15
2022-10-16T05:43:03.161Z,1.13
2022-10-16T05:45:30.060Z,1.05
2022-10-16T05:47:57.005Z,1.08
2022-10-16T05:50:23.794Z,1.40
2022-10-16T05:52:50.552Z,1.13
2022-10-16T05:55:17.471Z,1.15
2022-10-16T05:57:44.293Z,0.93
2022-10-16T06:00:11.825Z,1.33
2022-10-16T06:02:38.723Z,1.45
2022-10-16T06:05:06.072Z,1.58
2022-10-16T06:07:36.714Z,1.02
2022-10-16T06:10:05.386Z,0.88
2022-10-16T06:12:32.360Z,0.77
2022-10-16T06:14:59.134Z,0.82
2022-10-16T06:17:26.295Z,1.00
2022-10-16T06:19:53.264Z,1.05
2022-10-16T06:22:20.122Z,0.98
2022-10-16T06:24:48.583Z,0.45
2022-10-16T06:27:15.381Z,1.27
2022-10-16T06:29:44.029Z,1.08
2022-10-16T06:32:10.810Z,1.25
2022-10-16T06:34:38.488Z,1.35
2022-10-16T06:37:08.564Z,0.85
2022-10-16T06:39:35.380Z,0.75
2022-10-16T06:42:02.227Z,0.60
2022-10-16T06:44:29.008Z,1.08
2022-10-16T06:46:55.809Z,1.40
2022-10-16T06:49:23.526Z,1.10
2022-10-16T06:51:50.446Z,0.90
2022-10-16T06:54:18.800Z,0.88
2022-10-16T06:56:45.725Z,1.00
2022-10-16T06:59:12.534Z,0.98
2022-10-16T07:01:39.345Z,0.88
2022-10-16T07:04:06.998Z,0.77
2022-10-16T07:06:35.390Z,0.90
2022-10-16T07:09:05.563Z,0.88
2022-10-16T07:11:32.538Z,1.00
2022-10-16T07:13:59.805Z,0.80
2022-10-16T07:16:29.065Z,0.60
2022-10-16T07:19:01.212Z,1.02
2022-10-16T07:21:31.300Z,0.70
2022-10-16T07:24:00.513Z,0.50
2022-10-16T07:26:28.938Z,0.52
2022-10-16T07:28:56.058Z,0.90
2022-10-16T07:31:23.580Z,0.52
2022-10-16T07:33:51.188Z,1.17
2022-10-16T07:36:19.800Z,0.80
2022-10-16T07:38:47.112Z,1.05
2022-10-16T07:41:16.408Z,0.82
2022-10-16T07:43:52.114Z,0.93
2022-10-16T07:46:20.033Z,0.88
2022-10-16T07:48:49.110Z,0.70
2022-10-16T07:51:18.625Z,1.02
2022-10-16T07:53:45.526Z,0.68
2022-10-16T07:56:13.516Z,0.52
2022-10-16T07:58:41.096Z,0.57
2022-10-16T08:01:10.390Z,0.98
2022-10-16T08:03:37.711Z,0.90
2022-10-16T08:06:05.889Z,0.77
2022-10-16T08:08:32.925Z,0.73
2022-10-16T08:10:59.982Z,0.80
2022-10-16T08:13:27.590Z,0.88
2022-10-16T08:15:55.104Z,0.90
2022-10-16T08:18:21.996Z,0.70
2022-10-16T08:20:48.955Z,0.68
2022-10-16T08:23:15.789Z,0.50
2022-10-16T08:25:42.994Z,0.93
2022-10-16T08:28:11.771Z,0.60
2022-10-16T08:30:38.714Z,1.15
2022-10-16T08:33:05.668Z,0.40
2022-10-16T08:35:32.559Z,0.70
2022-10-16T08:37:59.355Z,0.52
2022-10-16T08:40:33.171Z,0.50
2022-10-16T08:43:06.073Z,0.63
2022-10-16T08:45:35.537Z,0.90
2022-10-16T08:48:21.442Z,0.80
2022-10-16T08:50:50.639Z,0.73
2022-10-16T08:53:34.878Z,0.77
2022-10-16T08:56:01.704Z,0.50
2022-10-16T08:58:30.667Z,0.52
2022-10-16T09:01:00.351Z,0.70
2022-10-16T09:04:01.185Z,0.60
2022-10-16T09:06:41.556Z,1.17
2022-10-16T09:09:29.864Z,0.70
2022-10-16T09:12:20.581Z,0.70
2022-10-16T09:15:25.649Z,0.70
2022-10-16T09:17:55.212Z,0.70
2022-10-16T09:20:51.212Z,0.40
2022-10-16T09:23:23.425Z,0.88
2022-10-16T09:25:51.186Z,0.60
2022-10-16T09:28:19.198Z,0.63
2022-10-16T09:30:47.351Z,0.50
2022-10-16T09:33:15.458Z,0.40
2022-10-16T09:35:49.972Z,0.55
2022-10-16T09:38:28.955Z,0.40
2022-10-16T09:40:59.232Z,0.70
2022-10-16T09:43:42.438Z,0.65
2022-10-16T09:46:28.147Z,0.77
2022-10-16T09:49:01.220Z,0.43
2022-10-16T09:51:34.029Z,0.52
2022-10-16T09:54:03.763Z,0.40
2022-10-16T09:56:37.269Z,0.55
2022-10-16T09:59:12.659Z,1.00
2022-10-16T10:01:46.715Z,0.40
2022-10-16T10:04:14.088Z,2.35
2022-10-16T10:06:55.803Z,0.95
2022-10-16T10:09:24.670Z,0.35
2022-10-16T10:11:56.446Z,0.32
2022-10-16T10:14:28.314Z,0.65
2022-10-16T10:17:07.030Z,0.65
2022-10-16T10:20:03.964Z,0.52
2022-10-16T10:22:46.901Z,0.50
2022-10-16T10:25:13.686Z,0.28
2022-10-16T10:27:57.264Z,0.73
2022-10-16T10:30:45.279Z,0.90
2022-10-16T10:33:30.298Z,0.85
2022-10-16T10:36:20.380Z,0.63
2022-10-16T10:38:59.657Z,0.30
2022-10-16T10:41:41.687Z,0.70
2022-10-16T10:44:43.794Z,0.75
2022-10-16T10:47:31.784Z,1.10
2022-10-16T10:50:25.257Z,0.77
2022-10-16T10:53:25.929Z,0.60
2022-10-16T10:56:25.822Z,0.80
2022-10-16T10:58:55.306Z,0.40
2022-10-16T11:01:46.101Z,1.48
2022-10-16T11:04:21.876Z,1.08
2022-10-16T11:06:57.132Z,0.57
2022-10-16T11:09:39.196Z,0.40
2022-10-16T11:12:13.301Z,0.50
2022-10-16T11:14:47.286Z,0.55
2022-10-16T11:17:23.498Z,0.47
2022-10-16T11:20:14.864Z,0.95
2022-10-16T11:22:55.323Z,0.75
2022-10-16T11:25:26.971Z,0.82
2022-10-16T11:28:06.734Z,0.95
2022-10-16T11:31:00.684Z,0.73
2022-10-16T11:33:40.748Z,0.52
2022-10-16T11:36:32.032Z,0.77
2022-10-16T11:38:58.753Z,0.43
2022-10-16T11:41:28.961Z,0.80
2022-10-16T11:44:07.858Z,0.38
2022-10-16T11:46:52.530Z,0.63
2022-10-16T11:49:27.605Z,0.77
2022-10-16T11:52:16.161Z,1.83
2022-10-16T11:54:46.931Z,0.50
2022-10-16T11:57:25.624Z,0.70
2022-10-16T12:00:09.660Z,0.70
2022-10-16T12:02:45.177Z,0.47
2022-10-16T12:05:40.536Z,0.52
2022-10-16T12:08:15.847Z,0.77
2022-10-16T12:10:45.474Z,0.65
2022-10-16T12:13:41.785Z,0.57
2022-10-16T12:16:14.529Z,0.63
2022-10-16T12:18:43.417Z,0.70
2022-10-16T12:21:11.776Z,0.60
2022-10-16T12:23:48.172Z,0.95
2022-10-16T12:26:15.115Z,0.60
2022-10-16T12:28:42.828Z,0.60
2022-10-16T12:31:13.250Z,0.80
2022-10-16T12:33:54.716Z,1.20
2022-10-16T12:36:34.066Z,0.98
2022-10-16T12:39:02.387Z,0.82
2022-10-16T12:41:31.113Z,0.85
2022-10-16T12:43:58.993Z,0.60
2022-10-16T12:46:31.729Z,0.40
2022-10-16T12:49:13.917Z,0.65
2022-10-16T12:51:42.908Z,0.40
2022-10-16T12:54:17.676Z,0.50
2022-10-16T12:57:06.303Z,0.60
2022-10-16T12:59:42.796Z,0.65
2022-10-16T13:02:45.558Z,0.88
2022-10-16T13:05:15.092Z,0.55
2022-10-16T13:07:44.998Z,1.42
2022-10-16T13:10:36.248Z,0.70
2022-10-16T13:13:23.405Z,0.60
2022-10-16T13:16:13.483Z,0.80
2022-10-16T13:19:18.904Z,0.88
2022-10-16T13:22:15.870Z,0.70
2022-10-16T13:24:42.681Z,0.60
2022-10-16T13:27:22.954Z,0.40
2022-10-16T13:30:01.222Z,0.60
2022-10-16T13:32:28.624Z,0.80
2022-10-16T13:34:56.656Z,0.50
2022-10-16T13:37:25.672Z,0.75
2022-10-16T13:40:02.749Z,0.55
2022-10-16T13:42:30.491Z,0.70
2022-10-16T13:44:57.847Z,0.70
2022-10-16T13:47:25.961Z,0.93
2022-10-16T13:50:10.330Z,0.65
2022-10-16T13:52:38.108Z,0.50
2022-10-16T13:55:15.748Z,1.08
2022-10-16T13:57:43.728Z,0.60
2022-10-16T14:00:26.332Z,0.80
2022-10-16T14:03:05.164Z,0.80
2022-10-16T14:05:32.338Z,0.88
2022-10-16T14:08:00.106Z,0.52
2022-10-16T14:10:33.669Z,0.90
2022-10-16T14:13:07.297Z,0.80
2022-10-16T14:15:36.534Z,0.67
2022-10-16T14:18:04.477Z,0.38
2022-10-16T14:20:33.394Z,0.50
2022-10-16T14:23:19.848Z,0.90
2022-10-16T14:25:47.194Z,0.60
2022-10-16T14:28:22.905Z,0.80
2022-10-16T14:31:00.849Z,0.60
2022-10-16T14:33:30.839Z,0.43
2022-10-16T14:36:11.638Z,0.63
2022-10-16T14:38:40.432Z,0.95
2022-10-16T14:41:08.019Z,0.73
2022-10-16T14:43:40.661Z,0.93
2022-10-16T14:46:16.314Z,0.38
2022-10-16T14:48:44.941Z,1.20
2022-10-16T14:51:16.239Z,0.45
2022-10-16T14:53:43.140Z,0.68
2022-10-16T14:56:18.245Z,0.90
2022-10-16T14:58:45.455Z,0.80
2022-10-16T15:01:12.652Z,0.80
2022-10-16T15:03:39.901Z,0.60
2022-10-16T15:06:12.962Z,0.80
2022-10-16T15:08:40.367Z,1.17
2022-10-16T15:11:13.322Z,0.93
2022-10-16T15:13:40.493Z,0.40
2022-10-16T15:16:13.508Z,0.50
2022-10-16T15:18:40.375Z,0.95
2022-10-16T15:21:07.785Z,0.73
2022-10-16T15:23:34.792Z,1.02
2022-10-16T15:26:01.598Z,0.50
2022-10-16T15:28:28.641Z,0.70
2022-10-16T15:30:57.824Z,0.55
2022-10-16T15:33:29.709Z,0.80
2022-10-16T15:35:56.485Z,0.70
2022-10-16T15:38:23.771Z,1.10
2022-10-16T15:40:51.589Z,0.75
2022-10-16T15:43:19.675Z,0.50
2022-10-16T15:46:06.926Z,0.68
2022-10-16T15:48:34.347Z,0.95
2022-10-16T15:51:05.371Z,1.10
2022-10-16T15:53:32.138Z,0.68
2022-10-16T15:55:59.282Z,0.60
2022-10-16T15:58:26.218Z,0.57
2022-10-16T16:00:57.954Z,0.75
2022-10-16T16:03:25.113Z,0.70
2022-10-16T16:05:52.044Z,0.57
2022-10-16T16:08:18.832Z,0.95
2022-10-16T16:10:45.834Z,0.70
2022-10-16T16:13:12.938Z,1.00
2022-10-16T16:15:41.576Z,0.45
2022-10-16T16:18:10.670Z,1.40
2022-10-16T16:20:37.932Z,0.70
2022-10-16T16:23:05.058Z,0.57
2022-10-16T16:25:31.855Z,1.35
2022-10-16T16:27:58.634Z,1.05
2022-10-16T16:30:28.159Z,1.13
2022-10-16T16:32:55.204Z,1.63
2022-10-16T16:35:22.017Z,0.70
2022-10-16T16:37:49.296Z,1.02
2022-10-16T16:40:16.457Z,1.30
2022-10-16T16:42:43.312Z,0.80
2022-10-16T16:45:10.410Z,1.23
2022-10-16T16:47:37.428Z,1.17
2022-10-16T16:50:05.912Z,0.90
2022-10-16T16:52:32.746Z,1.40
2022-10-16T16:54:59.657Z,1.60
2022-10-16T16:57:26.894Z,1.38
2022-10-16T16:59:54.027Z,1.60
2022-10-16T17:02:20.921Z,2.15
2022-10-16T17:04:47.807Z,1.77
2022-10-16T17:07:14.812Z,2.50
2022-10-16T17:09:41.742Z,2.15
2022-10-16T17:12:08.532Z,2.70
2022-10-16T17:14:35.305Z,3.33
2022-10-16T17:17:02.139Z,2.30
2022-10-16T17:19:28.938Z,2.72
2022-10-16T17:21:56.024Z,3.00
2022-10-16T17:24:22.983Z,2.67
2022-10-16T17:26:50.033Z,2.03
2022-10-16T17:29:18.776Z,2.22
2022-10-16T17:31:45.988Z,2.40
2022-10-16T17:34:12.994Z,1.80
2022-10-16T17:36:47.948Z,2.10
2022-10-16T17:39:17.950Z,1.92
2022-10-16T17:41:46.345Z,2.25
2022-10-16T17:44:19.775Z,2.42
2022-10-16T17:46:51.552Z,2.20
2022-10-16T17:49:19.355Z,2.15
2022-10-16T17:51:49.361Z,2.40
2022-10-16T17:54:16.244Z,1.98
2022-10-16T17:56:43.160Z,2.35
2022-10-16T17:59:11.732Z,2.75
2022-10-16T18:01:41.360Z,2.25
2022-10-16T18:04:12.562Z,2.25
2022-10-16T18:06:40.639Z,2.13
2022-10-16T18:09:09.362Z,2.15
2022-10-16T18:11:37.150Z,2.30
2022-10-16T18:14:04.686Z,2.15
2022-10-16T18:16:32.015Z,2.67
2022-10-16T18:18:59.578Z,2.53
2022-10-16T18:21:27.772Z,2.63
2022-10-16T18:23:54.869Z,2.60
2022-10-16T18:26:22.295Z,2.17
2022-10-16T18:28:52.247Z,1.70
2022-10-16T18:31:19.624Z,2.03
2022-10-16T18:33:51.065Z,2.38
2022-10-16T18:36:29.858Z,2.20
2022-10-16T18:38:57.387Z,2.65
2022-10-16T18:41:25.731Z,1.58
2022-10-16T18:43:53.141Z,2.95
2022-10-16T18:46:22.109Z,2.65
2022-10-16T18:48:51.121Z,3.50
2022-10-16T18:51:19.618Z,3.00
2022-10-16T18:53:48.848Z,2.85
2022-10-16T18:56:17.771Z,2.50
2022-10-16T18:58:48.330Z,2.75
2022-10-16T19:01:22.261Z,2.15
2022-10-16T19:03:53.343Z,2.53
2022-10-16T19:06:20.504Z,2.53
2022-10-16T19:08:47.375Z,2.78
2022-10-16T19:11:17.653Z,3.00
2022-10-16T19:13:45.337Z,3.13
2022-10-16T19:16:20.272Z,2.55
2022-10-16T19:18:49.304Z,3.05
2022-10-16T19:21:17.240Z,2.90
2022-10-16T19:23:44.778Z,2.30
2022-10-16T19:26:14.879Z,2.47
2022-10-16T19:28:43.277Z,2.42
2022-10-16T19:31:13.979Z,2.97
2022-10-16T19:33:41.174Z,4.30
2022-10-16T19:36:09.391Z,2.83
2022-10-16T19:38:36.333Z,3.17
2022-10-16T19:41:18.402Z,3.30
2022-10-16T19:43:45.988Z,3.83
2022-10-16T19:46:15.955Z,3.78
2022-10-16T19:48:43.323Z,3.90
2022-10-16T19:51:16.641Z,3.95
2022-10-16T19:53:43.994Z,3.78
2022-10-16T19:56:19.172Z,4.72
2022-10-16T19:58:46.778Z,4.15
2022-10-16T20:01:15.096Z,4.00
2022-10-16T20:03:44.876Z,3.85
2022-10-16T20:06:12.708Z,4.22
2022-10-16T20:08:41.304Z,3.70
2022-10-16T20:11:12.723Z,4.32
2022-10-16T20:13:42.357Z,3.90
2022-10-16T20:16:10.867Z,3.22
2022-10-16T20:18:37.812Z,2.72
2022-10-16T20:21:13.901Z,3.50
2022-10-16T20:23:41.730Z,2.90
2022-10-16T20:26:12.468Z,2.50
2022-10-16T20:28:40.885Z,2.47
2022-10-16T20:31:11.293Z,2.85
2022-10-16T20:33:38.568Z,2.15
2022-10-16T20:36:10.378Z,2.10
2022-10-16T20:38:37.599Z,1.95
2022-10-16T20:41:06.155Z,1.75
2022-10-16T20:43:33.149Z,1.90
2022-10-16T20:46:02.060Z,1.52
2022-10-16T20:48:29.262Z,1.48
2022-10-16T20:50:56.206Z,1.10
2022-10-16T20:53:23.035Z,1.33
2022-10-16T20:55:49.909Z,1.20
2022-10-16T20:58:17.524Z,1.40
2022-10-16T21:00:45.015Z,1.30
2022-10-16T21:03:12.450Z,1.38
2022-10-16T21:05:41.564Z,1.33
2022-10-16T21:08:08.501Z,0.73
2022-10-16T21:10:35.612Z,0.90
2022-10-16T21:13:03.576Z,1.10
2022-10-16T21:15:30.445Z,1.20
2022-10-16T21:17:57.220Z,1.35
2022-10-16T21:20:24.057Z,1.08
2022-10-16T21:22:51.269Z,1.23
2022-10-16T21:25:18.255Z,1.17
2022-10-16T21:27:45.971Z,0.98
2022-10-16T21:30:12.953Z,1.38
2022-10-16T21:32:40.027Z,1.45
2022-10-16T21:35:07.513Z,1.02
2022-10-16T21:37:35.193Z,1.30
2022-10-16T21:40:02.471Z,0.88
2022-10-16T21:42:29.895Z,1.13
2022-10-16T21:44:56.923Z,1.33
2022-10-16T21:47:23.764Z,0.88
2022-10-16T21:49:50.539Z,1.33
2022-10-16T21:52:17.517Z,1.30
2022-10-16T21:54:44.356Z,1.38
2022-10-16T21:57:11.254Z,1.80
2022-10-16T21:59:54.357Z,1.75
2022-10-16T22:02:21.257Z,1.42
2022-10-16T22:04:48.011Z,1.30
2022-10-16T22:07:14.821Z,1.48
2022-10-16T22:09:41.683Z,1.35
2022-10-16T22:12:08.653Z,1.38
2022-10-16T22:14:35.437Z,1.33
2022-10-16T22:17:02.468Z,1.10
2022-10-16T22:19:29.297Z,1.00
2022-10-16T22:21:57.278Z,1.23
2022-10-16T22:24:24.445Z,1.30
2022-10-16T22:26:51.437Z,1.77
2022-10-16T22:29:18.352Z,1.27
2022-10-16T22:31:50.248Z,1.35
2022-10-16T22:34:17.030Z,1.27
2022-10-16T22:36:43.901Z,1.25
2022-10-16T22:39:11.174Z,1.50
2022-10-16T22:41:38.064Z,1.48
2022-10-16T22:44:05.006Z,1.73
2022-10-16T22:46:31.804Z,1.75
2022-10-16T22:48:58.928Z,1.40
2022-10-16T22:51:27.351Z,1.50
2022-10-16T22:53:54.154Z,1.83
2022-10-16T22:56:21.847Z,1.40
2022-10-16T22:58:49.053Z,1.73
2022-10-16T23:01:20.523Z,2.67
2022-10-16T23:03:47.676Z,1.70
2022-10-16T23:06:14.519Z,1.67
2022-10-16T23:08:41.444Z,2.00
2022-10-16T23:11:10.394Z,1.92
2022-10-16T23:13:39.030Z,1.83
2022-10-16T23:16:07.062Z,2.05
2022-10-16T23:18:34.735Z,1.65
2022-10-16T23:21:06.683Z,1.67
2022-10-16T23:23:35.790Z,1.70
2022-10-16T23:26:03.464Z,2.28
2022-10-16T23:28:32.297Z,1.85
2022-10-16T23:30:59.293Z,1.77
2022-10-16T23:33:26.054Z,2.00
2022-10-16T23:35:52.819Z,1.33
2022-10-16T23:38:19.723Z,1.40
2022-10-16T23:40:46.708Z,2.03
2022-10-16T23:43:13.543Z,1.35
2022-10-16T23:45:40.337Z,1.33
2022-10-16T23:48:07.168Z,1.23
2022-10-16T23:50:34.032Z,1.00
2022-10-16T23:53:02.501Z,1.58
2022-10-16T23:58:02.741Z,1.33
